createdAt,value
2023-03-12T00:00:28.476Z,97180.55
2023-03-12T00:01:33.225Z,97172.50
2023-03-12T00:02:35.910Z,97176.23
2023-03-12T00:03:40.884Z,97174.55
2023-03-12T00:04:45.117Z,97174.55
2023-03-12T00:05:47.804Z,97176.04
2023-03-12T00:06:51.413Z,97176.23
2023-03-12T00:07:54.018Z,97170.01
2023-03-12T00:08:57.133Z,97164.45
2023-03-12T00:10:00.616Z,97164.45
2023-03-12T00:12:20.633Z,97184.64
2023-03-12T00:13:23.530Z,97178.72
2023-03-12T00:14:26.344Z,97190.28
2023-03-12T00:15:28.947Z,97193.97
2023-03-12T00:16:31.966Z,97197.50
2023-03-12T00:17:35.760Z,97194.82
2023-03-12T00:18:38.912Z,97205.55
2023-03-12T00:19:42.587Z,97208.23
2023-03-12T00:20:49.151Z,97201.86
2023-03-12T00:21:51.659Z,97209.91
2023-03-12T00:22:54.118Z,97222.29
2023-03-12T00:23:56.774Z,97219.61
2023-03-12T00:24:59.454Z,97221.47
2023-03-12T00:26:07.272Z,97215.28
2023-03-12T00:27:09.787Z,97215.28
2023-03-12T00:28:12.569Z,97217.96
2023-03-12T00:29:15.539Z,97218.97
2023-03-12T00:30:18.978Z,97203.87
2023-03-12T00:31:24.181Z,97203.87
2023-03-12T00:32:27.036Z,97208.42
2023-03-12T00:33:29.584Z,97204.88
2023-03-12T00:34:32.176Z,97205.07
2023-03-12T00:35:34.817Z,97204.88
2023-03-12T00:36:37.858Z,97219.34
2023-03-12T00:37:40.784Z,97200.56
2023-03-12T00:38:43.784Z,97212.30
2023-03-12T00:39:46.948Z,97209.80
2023-03-12T00:40:50.237Z,97214.13
2023-03-12T00:41:53.218Z,97212.48
2023-03-12T00:42:55.801Z,97213.30
2023-03-12T00:43:59.285Z,97211.63
2023-03-12T00:45:03.312Z,97205.44
2023-03-12T00:46:06.323Z,97187.08
2023-03-12T00:47:09.366Z,97208.12
2023-03-12T00:48:12.452Z,97208.12
2023-03-12T00:49:16.129Z,97209.98
2023-03-12T00:50:19.222Z,97209.98
2023-03-12T00:51:22.163Z,97204.62
2023-03-12T00:52:25.036Z,97207.30
2023-03-12T00:53:28.438Z,97214.50
2023-03-12T00:54:31.298Z,97207.48
2023-03-12T00:55:35.691Z,97216.36
2023-03-12T00:56:38.365Z,97208.31
2023-03-12T00:57:41.023Z,97208.31
2023-03-12T00:58:43.714Z,97206.45
2023-03-12T00:59:47.263Z,97206.45
2023-03-12T01:00:50.478Z,97207.48
2023-03-12T01:01:54.069Z,97199.44
2023-03-12T01:02:56.418Z,97199.44
2023-03-12T01:04:00.032Z,97191.39
2023-03-12T01:05:03.700Z,97194.07
2023-03-12T01:06:06.903Z,97194.07
2023-03-12T01:07:10.336Z,97201.27
2023-03-12T01:08:13.053Z,97197.77
2023-03-12T01:09:16.067Z,97186.41
2023-03-12T01:10:19.981Z,97186.41
2023-03-12T01:11:23.053Z,97203.95
2023-03-12T01:12:25.648Z,97203.13
2023-03-12T01:13:28.322Z,97204.80
2023-03-12T01:14:31.524Z,97204.80
2023-03-12T01:15:35.141Z,97209.31
2023-03-12T01:16:37.965Z,97200.45
2023-03-12T01:17:41.219Z,97195.08
2023-03-12T01:18:44.925Z,97206.63
2023-03-12T01:19:48.155Z,97203.95
2023-03-12T01:20:51.775Z,97189.38
2023-03-12T01:21:54.864Z,97189.38
2023-03-12T01:22:57.484Z,97206.63
2023-03-12T01:24:00.240Z,97210.99
2023-03-12T01:25:03.757Z,97210.99
2023-03-12T01:26:07.796Z,97209.13
2023-03-12T01:27:10.251Z,97210.81
2023-03-12T01:28:13.854Z,97210.81
2023-03-12T01:29:16.624Z,97219.49
2023-03-12T01:30:21.547Z,97223.03
2023-03-12T01:31:24.531Z,97229.22
2023-03-12T01:32:27.302Z,97232.75
2023-03-12T01:33:29.921Z,97233.58
2023-03-12T01:34:34.542Z,97245.12
2023-03-12T01:35:39.347Z,97242.45
2023-03-12T01:36:42.163Z,97251.16
2023-03-12T01:37:44.794Z,97251.16
2023-03-12T01:38:47.530Z,97264.58
2023-03-12T01:39:50.726Z,97250.31
2023-03-12T01:40:53.670Z,97259.03
2023-03-12T01:41:56.275Z,97254.67
2023-03-12T01:42:58.952Z,97238.27
2023-03-12T01:44:03.088Z,97238.27
2023-03-12T01:45:08.575Z,97260.70
2023-03-12T01:46:35.698Z,97254.48
2023-03-12T01:47:40.554Z,97254.30
2023-03-12T01:50:08.486Z,97265.82
2023-03-12T01:51:12.755Z,97275.13
2023-03-12T01:52:20.458Z,97269.95
2023-03-12T01:53:25.102Z,97275.31
2023-03-12T01:54:34.588Z,97276.99
2023-03-12T01:55:37.177Z,97277.81
2023-03-12T01:56:41.048Z,97282.99
2023-03-12T01:59:05.899Z,97287.29
2023-03-12T02:01:29.246Z,97292.66
2023-03-12T02:02:31.891Z,97294.73
2023-03-12T02:03:37.036Z,97305.47
2023-03-12T02:04:39.881Z,97302.78
2023-03-12T02:05:48.482Z,97307.14
2023-03-12T02:07:07.438Z,97307.97
2023-03-12T02:08:14.086Z,97317.70
2023-03-12T02:09:19.586Z,97315.86
2023-03-12T02:10:23.493Z,97327.42
2023-03-12T02:11:26.102Z,97331.11
2023-03-12T02:12:29.488Z,97319.55
2023-03-12T02:13:32.236Z,97333.80
2023-03-12T02:14:35.127Z,97344.34
2023-03-12T02:15:39.183Z,97334.65
2023-03-12T02:16:42.808Z,97334.65
2023-03-12T02:17:45.710Z,97347.88
2023-03-12T02:18:48.630Z,97336.30
2023-03-12T02:20:01.398Z,97343.34
2023-03-12T02:21:17.326Z,97342.52
2023-03-12T02:22:21.056Z,97340.66
2023-03-12T02:23:42.653Z,97344.16
2023-03-12T02:25:21.422Z,97348.70
2023-03-12T02:26:24.312Z,97363.13
2023-03-12T02:27:26.796Z,97356.11
2023-03-12T02:28:29.348Z,97368.03
2023-03-12T02:29:31.920Z,97379.59
2023-03-12T02:30:34.446Z,97366.36
2023-03-12T02:31:47.094Z,97352.94
2023-03-12T02:32:50.724Z,97362.84
2023-03-12T02:33:55.341Z,97375.23
2023-03-12T02:34:57.964Z,97363.49
2023-03-12T02:36:00.370Z,97364.31
2023-03-12T02:37:03.596Z,97373.41
2023-03-12T02:38:42.424Z,97377.91
2023-03-12T02:39:48.344Z,97376.08
2023-03-12T02:40:51.936Z,97394.02
2023-03-12T02:41:55.278Z,97383.28
2023-03-12T02:42:58.835Z,97400.41
2023-03-12T02:44:10.753Z,97397.55
2023-03-12T02:45:13.475Z,97401.23
2023-03-12T02:46:17.062Z,97407.43
2023-03-12T02:47:19.522Z,97402.92
2023-03-12T02:48:23.086Z,97401.23
2023-03-12T02:49:28.012Z,97403.09
2023-03-12T02:50:30.501Z,97400.41
2023-03-12T02:51:33.197Z,97407.61
2023-03-12T02:52:38.468Z,97407.61
2023-03-12T02:53:42.165Z,97396.70
2023-03-12T02:54:44.723Z,97395.69
2023-03-12T02:55:48.485Z,97396.70
2023-03-12T02:56:51.974Z,97394.02
2023-03-12T02:57:54.585Z,97397.55
2023-03-12T02:58:58.608Z,97396.52
2023-03-12T03:00:01.492Z,97388.47
2023-03-12T03:01:06.290Z,97393.83
2023-03-12T03:02:09.149Z,97410.78
2023-03-12T03:03:12.706Z,97409.93
2023-03-12T03:04:15.331Z,97411.80
2023-03-12T03:05:19.789Z,97409.93
2023-03-12T03:06:22.654Z,97403.74
2023-03-12T03:07:25.820Z,97424.20
2023-03-12T03:08:28.236Z,97412.61
2023-03-12T03:09:31.728Z,97428.72
2023-03-12T03:10:34.871Z,97421.52
2023-03-12T03:11:37.764Z,97425.88
2023-03-12T03:12:41.779Z,97433.08
2023-03-12T03:13:44.705Z,97432.25
2023-03-12T03:14:47.698Z,97426.03
2023-03-12T03:15:50.322Z,97423.06
2023-03-12T03:16:52.989Z,97423.06
2023-03-12T03:17:57.965Z,97438.45
2023-03-12T03:19:00.344Z,97443.81
2023-03-12T03:21:20.177Z,97438.22
2023-03-12T03:22:22.898Z,97429.57
2023-03-12T03:23:25.447Z,97442.98
2023-03-12T03:24:28.403Z,97449.17
2023-03-12T03:25:31.206Z,97434.94
2023-03-12T03:26:35.105Z,97434.94
2023-03-12T03:27:39.006Z,97443.81
2023-03-12T03:28:45.366Z,97460.59
2023-03-12T03:30:54.590Z,97454.36
2023-03-12T03:31:59.503Z,97445.31
2023-03-12T03:33:02.319Z,97449.00
2023-03-12T03:34:05.220Z,97446.31
2023-03-12T03:35:08.756Z,97456.23
2023-03-12T03:36:13.337Z,97444.67
2023-03-12T03:37:17.510Z,97447.35
2023-03-12T03:38:22.482Z,97451.86
2023-03-12T03:39:25.252Z,97452.72
2023-03-12T03:40:27.894Z,97452.72
2023-03-12T03:41:32.040Z,97458.23
2023-03-12T03:42:36.435Z,97469.82
2023-03-12T03:43:39.765Z,97476.02
2023-03-12T03:44:42.720Z,97489.43
2023-03-12T03:45:45.308Z,97505.53
2023-03-12T03:46:48.580Z,97505.53
2023-03-12T03:47:52.651Z,97500.16
2023-03-12T03:48:55.121Z,97503.70
2023-03-12T03:49:57.662Z,97515.27
2023-03-12T03:51:01.304Z,97510.89
2023-03-12T03:52:05.939Z,97512.58
2023-03-12T03:53:10.010Z,97509.06
2023-03-12T03:54:13.904Z,97505.53
2023-03-12T03:55:16.958Z,97498.34
2023-03-12T03:56:19.831Z,97518.95
2023-03-12T03:57:24.481Z,97526.82
2023-03-12T03:58:27.676Z,97505.17
2023-03-12T03:59:30.383Z,97515.08
2023-03-12T04:00:33.666Z,97513.41
2023-03-12T04:01:36.468Z,97531.36
2023-03-12T04:02:40.097Z,97532.19
2023-03-12T04:03:42.910Z,97522.31
2023-03-12T04:04:46.186Z,97530.36
2023-03-12T04:05:54.233Z,97522.31
2023-03-12T04:06:58.458Z,97530.36
2023-03-12T04:08:04.759Z,97543.78
2023-03-12T04:09:07.656Z,97539.23
2023-03-12T04:10:12.376Z,97545.42
2023-03-12T04:11:17.264Z,97536.55
2023-03-12T04:12:20.341Z,97543.78
2023-03-12T04:13:24.090Z,97546.28
2023-03-12T04:14:26.863Z,97549.97
2023-03-12T04:15:29.508Z,97543.78
2023-03-12T04:16:33.731Z,97550.79
2023-03-12T04:17:37.426Z,97555.98
2023-03-12T04:18:39.863Z,97556.16
2023-03-12T04:19:43.540Z,97555.98
2023-03-12T04:20:46.247Z,97556.84
2023-03-12T04:21:48.960Z,97555.16
2023-03-12T04:22:51.677Z,97565.89
2023-03-12T04:23:54.308Z,97566.72
2023-03-12T04:24:58.862Z,97556.84
2023-03-12T04:26:01.696Z,97577.31
2023-03-12T04:27:04.620Z,97563.89
2023-03-12T04:28:08.367Z,97583.50
2023-03-12T04:29:13.060Z,97581.64
2023-03-12T04:30:17.637Z,97586.83
2023-03-12T04:31:21.186Z,97587.69
2023-03-12T04:32:26.433Z,97592.20
2023-03-12T04:33:30.228Z,97596.56
2023-03-12T04:34:33.615Z,97587.69
2023-03-12T04:35:36.872Z,97579.63
2023-03-12T04:36:39.730Z,97602.94
2023-03-12T04:37:42.972Z,97595.92
2023-03-12T04:38:47.183Z,97591.38
2023-03-12T04:39:51.443Z,97592.20
2023-03-12T04:40:59.343Z,97590.38
2023-03-12T04:42:01.921Z,97605.62
2023-03-12T04:43:05.366Z,97606.65
2023-03-12T04:44:10.354Z,97602.28
2023-03-12T04:45:13.081Z,97611.16
2023-03-12T04:46:18.276Z,97607.66
2023-03-12T04:47:22.198Z,97606.97
2023-03-12T04:48:25.040Z,97616.70
2023-03-12T04:49:27.767Z,97615.88
2023-03-12T04:50:30.406Z,97623.94
2023-03-12T04:51:34.658Z,97631.13
2023-03-12T04:52:38.416Z,97621.25
2023-03-12T04:53:41.555Z,97618.56
2023-03-12T04:54:47.963Z,97636.17
2023-03-12T04:55:51.243Z,97621.07
2023-03-12T04:56:55.699Z,97624.75
2023-03-12T04:57:58.574Z,97629.13
2023-03-12T04:59:01.703Z,97637.35
2023-03-12T05:00:07.996Z,97630.13
2023-03-12T05:01:26.264Z,97630.98
2023-03-12T05:02:29.220Z,97633.66
2023-03-12T05:03:32.898Z,97648.73
2023-03-12T05:04:35.768Z,97642.55
2023-03-12T05:05:38.473Z,97651.77
2023-03-12T05:06:41.429Z,97651.77
2023-03-12T05:07:43.985Z,97669.55
2023-03-12T05:08:47.703Z,97669.55
2023-03-12T05:09:50.874Z,97668.70
2023-03-12T05:10:54.775Z,97675.92
2023-03-12T05:11:58.351Z,97669.73
2023-03-12T05:13:01.150Z,97677.78
2023-03-12T05:14:04.091Z,97681.29
2023-03-12T05:15:08.016Z,97688.34
2023-03-12T05:16:11.937Z,97674.92
2023-03-12T05:17:14.604Z,97686.48
2023-03-12T05:18:18.364Z,97694.53
2023-03-12T05:19:20.883Z,97692.03
2023-03-12T05:20:24.752Z,97703.59
2023-03-12T05:21:27.860Z,97702.76
2023-03-12T05:22:30.771Z,97700.08
2023-03-12T05:23:34.123Z,97696.06
2023-03-12T05:24:37.402Z,97696.06
2023-03-12T05:25:41.728Z,97706.27
2023-03-12T05:26:44.572Z,97717.00
2023-03-12T05:27:49.112Z,97707.30
2023-03-12T05:28:51.729Z,97712.67
2023-03-12T05:29:54.265Z,97726.09
2023-03-12T05:30:57.566Z,97717.18
2023-03-12T05:32:01.288Z,97726.09
2023-03-12T05:33:05.223Z,97731.63
2023-03-12T05:34:10.541Z,97729.59
2023-03-12T05:35:15.077Z,97743.84
2023-03-12T05:36:18.066Z,97752.06
2023-03-12T05:37:21.199Z,97747.56
2023-03-12T05:38:24.203Z,97752.92
2023-03-12T05:39:28.355Z,97753.75
2023-03-12T05:40:43.202Z,97752.92
2023-03-12T05:41:46.350Z,97761.80
2023-03-12T05:42:51.170Z,97747.56
2023-03-12T05:43:55.676Z,97760.98
2023-03-12T05:44:58.894Z,97763.66
2023-03-12T05:46:03.815Z,97764.48
2023-03-12T05:47:07.107Z,97760.98
2023-03-12T05:48:10.528Z,97771.71
2023-03-12T05:49:13.645Z,97771.71
2023-03-12T05:50:17.573Z,97774.39
2023-03-12T05:51:20.268Z,97777.08
2023-03-12T05:52:24.101Z,97777.91
2023-03-12T05:53:26.930Z,97773.54
2023-03-12T05:54:30.798Z,97786.78
2023-03-12T05:55:37.843Z,97794.01
2023-03-12T05:56:41.618Z,97800.20
2023-03-12T05:57:44.377Z,97793.02
2023-03-12T05:58:48.213Z,97798.55
2023-03-12T05:59:50.912Z,97804.57
2023-03-12T06:00:53.559Z,97819.84
2023-03-12T06:01:56.750Z,97812.63
2023-03-12T06:02:59.707Z,97825.05
2023-03-12T06:04:02.396Z,97818.85
2023-03-12T06:05:06.624Z,97816.16
2023-03-12T06:06:10.142Z,97822.36
2023-03-12T06:07:12.864Z,97836.78
2023-03-12T06:08:16.312Z,97828.73
2023-03-12T06:09:20.458Z,97853.73
2023-03-12T06:10:23.115Z,97828.73
2023-03-12T06:11:26.439Z,97837.64
2023-03-12T06:12:30.004Z,97841.98
2023-03-12T06:13:33.379Z,97846.52
2023-03-12T06:14:35.930Z,97849.20
2023-03-12T06:15:38.792Z,97856.42
2023-03-12T06:16:42.123Z,97854.56
2023-03-12T06:17:45.398Z,97864.48
2023-03-12T06:18:48.490Z,97863.45
2023-03-12T06:19:52.675Z,97851.06
2023-03-12T06:20:56.841Z,97871.50
2023-03-12T06:21:59.518Z,97869.84
2023-03-12T06:23:03.238Z,97867.98
2023-03-12T06:24:08.876Z,97863.45
2023-03-12T06:25:16.109Z,97876.87
2023-03-12T06:26:20.730Z,97884.92
2023-03-12T06:27:23.800Z,97882.23
2023-03-12T06:28:26.321Z,97899.37
2023-03-12T06:29:28.769Z,97882.41
2023-03-12T06:30:31.821Z,97891.45
2023-03-12T06:31:38.034Z,97887.77
2023-03-12T06:32:40.102Z,97902.19
2023-03-12T06:33:43.291Z,97912.09
2023-03-12T06:34:46.851Z,97905.91
2023-03-12T06:35:52.815Z,97896.82
2023-03-12T06:36:56.662Z,97898.67
2023-03-12T06:37:59.243Z,97902.36
2023-03-12T06:39:01.667Z,97910.24
2023-03-12T06:40:09.422Z,97904.05
2023-03-12T06:41:14.443Z,97912.09
2023-03-12T06:42:17.922Z,97930.88
2023-03-12T06:43:21.594Z,97934.39
2023-03-12T06:44:25.031Z,97930.88
2023-03-12T06:45:27.675Z,97934.39
2023-03-12T06:46:31.692Z,97935.25
2023-03-12T06:47:34.429Z,97937.94
2023-03-12T06:48:38.656Z,97937.08
2023-03-12T06:49:41.035Z,97943.14
2023-03-12T06:50:44.267Z,97948.67
2023-03-12T06:51:46.559Z,97953.88
2023-03-12T06:52:49.191Z,97954.88
2023-03-12T06:53:52.584Z,97950.36
2023-03-12T06:54:55.438Z,97971.83
2023-03-12T06:55:58.159Z,97961.09
2023-03-12T06:57:00.721Z,97966.30
2023-03-12T06:58:03.686Z,97967.13
2023-03-12T06:59:06.495Z,97972.50
2023-03-12T07:00:11.302Z,97968.98
2023-03-12T07:01:14.417Z,97978.69
2023-03-12T07:02:17.700Z,97999.17
2023-03-12T07:03:22.254Z,97980.38
2023-03-12T07:04:24.994Z,97985.75
2023-03-12T07:05:29.999Z,97987.44
2023-03-12T07:06:32.402Z,97999.00
2023-03-12T07:07:36.830Z,97989.95
2023-03-12T07:08:39.495Z,98003.37
2023-03-12T07:09:42.232Z,98007.58
2023-03-12T07:10:45.364Z,98009.57
2023-03-12T07:11:48.557Z,98011.26
2023-03-12T07:12:51.152Z,98007.75
2023-03-12T07:13:55.524Z,98016.63
2023-03-12T07:14:58.156Z,98012.95
2023-03-12T07:16:01.807Z,98025.52
2023-03-12T07:17:05.180Z,98021.00
2023-03-12T07:18:10.143Z,98015.63
2023-03-12T07:19:12.965Z,98023.69
2023-03-12T07:20:16.592Z,98037.11
2023-03-12T07:21:23.164Z,98032.56
2023-03-12T07:22:26.003Z,98036.25
2023-03-12T07:23:28.734Z,98047.84
2023-03-12T07:24:33.557Z,98046.98
2023-03-12T07:25:36.963Z,98047.84
2023-03-12T07:26:40.243Z,98057.72
2023-03-12T07:27:43.439Z,98055.90
2023-03-12T07:28:46.404Z,98063.95
2023-03-12T07:29:49.585Z,98075.52
2023-03-12T07:30:54.505Z,98073.83
2023-03-12T07:31:57.340Z,98063.95
2023-03-12T07:33:04.419Z,98066.80
2023-03-12T07:34:07.418Z,98081.05
2023-03-12T07:35:11.389Z,98073.16
2023-03-12T07:36:15.445Z,98078.37
2023-03-12T07:37:18.164Z,98093.64
2023-03-12T07:38:20.790Z,98083.91
2023-03-12T07:39:23.468Z,98100.02
2023-03-12T07:40:26.489Z,98099.02
2023-03-12T07:41:30.300Z,98095.47
2023-03-12T07:42:34.088Z,98091.95
2023-03-12T07:43:36.821Z,98108.06
2023-03-12T07:44:39.497Z,98112.44
2023-03-12T07:45:43.085Z,98110.75
2023-03-12T07:46:45.910Z,98123.34
2023-03-12T07:47:49.682Z,98117.11
2023-03-12T07:48:53.705Z,98129.70
2023-03-12T07:49:57.272Z,98116.28
2023-03-12T07:51:00.442Z,98129.70
2023-03-12T07:52:04.498Z,98129.01
2023-03-12T07:53:07.134Z,98130.70
2023-03-12T07:54:09.369Z,98137.92
2023-03-12T07:55:12.206Z,98125.33
2023-03-12T07:56:16.493Z,98145.97
2023-03-12T07:57:19.667Z,98150.48
2023-03-12T07:58:23.816Z,98159.39
2023-03-12T07:59:27.281Z,98166.45
2023-03-12T08:00:33.852Z,98161.22
2023-03-12T08:01:37.636Z,98161.22
2023-03-12T08:02:40.474Z,98171.95
2023-03-12T08:03:44.433Z,98178.19
2023-03-12T08:04:47.287Z,98178.19
2023-03-12T08:05:57.783Z,98188.92
2023-03-12T08:07:01.407Z,98187.23
2023-03-12T08:08:05.722Z,98188.92
2023-03-12T08:09:09.396Z,98188.92
2023-03-12T08:10:12.606Z,98181.70
2023-03-12T08:11:15.089Z,98193.42
2023-03-12T08:12:17.508Z,98196.11
2023-03-12T08:13:20.535Z,98203.17
2023-03-12T08:14:23.405Z,98204.16
2023-03-12T08:15:26.945Z,98207.71
2023-03-12T08:16:30.230Z,98197.80
2023-03-12T08:17:34.032Z,98198.80
2023-03-12T08:18:37.704Z,98205.03
2023-03-12T08:19:42.145Z,98210.39
2023-03-12T08:20:46.726Z,98200.48
2023-03-12T08:21:51.362Z,98203.17
2023-03-12T08:22:54.154Z,98205.86
2023-03-12T08:23:56.622Z,98213.91
2023-03-12T08:24:59.164Z,98214.90
2023-03-12T08:26:02.947Z,98213.08
2023-03-12T08:27:06.312Z,98213.91
2023-03-12T08:28:08.901Z,98214.90
2023-03-12T08:29:12.992Z,98224.64
2023-03-12T08:30:16.763Z,98222.82
2023-03-12T08:31:19.604Z,98219.28
2023-03-12T08:32:22.389Z,98220.14
2023-03-12T08:33:25.557Z,98218.28
2023-03-12T08:34:28.394Z,98223.66
2023-03-12T08:35:31.088Z,98243.27
2023-03-12T08:36:35.467Z,98238.77
2023-03-12T08:37:38.469Z,98232.54
2023-03-12T08:38:45.816Z,98245.96
2023-03-12T08:39:49.521Z,98236.08
2023-03-12T08:40:58.657Z,98231.55
2023-03-12T08:42:01.285Z,98232.54
2023-03-12T08:43:04.291Z,98236.08
2023-03-12T08:44:07.437Z,98251.33
2023-03-12T08:45:11.205Z,98249.51
2023-03-12T08:46:14.073Z,98245.96
2023-03-12T08:47:16.862Z,98249.51
2023-03-12T08:48:19.768Z,98252.19
2023-03-12T08:49:22.489Z,98254.02
2023-03-12T08:50:27.906Z,98273.66
2023-03-12T08:51:31.041Z,98263.76
2023-03-12T08:52:33.490Z,98262.93
2023-03-12T08:53:37.134Z,98265.61
2023-03-12T08:54:40.034Z,98268.30
2023-03-12T08:55:43.442Z,98270.98
2023-03-12T08:56:51.378Z,98267.44
2023-03-12T08:57:55.220Z,98282.71
2023-03-12T08:58:58.610Z,98286.38
2023-03-12T09:00:01.823Z,98289.07
2023-03-12T09:01:10.381Z,98282.71
2023-03-12T09:02:13.231Z,98288.08
2023-03-12T09:03:17.258Z,98292.62
2023-03-12T09:04:19.977Z,98302.49
2023-03-12T09:05:22.767Z,98308.72
2023-03-12T09:06:26.584Z,98315.91
2023-03-12T09:07:31.455Z,98323.80
2023-03-12T09:08:42.537Z,98331.86
2023-03-12T09:09:45.704Z,98311.41
2023-03-12T09:10:49.649Z,98332.88
2023-03-12T09:11:52.679Z,98352.51
2023-03-12T09:12:55.900Z,98341.77
2023-03-12T09:14:28.394Z,98328.34
2023-03-12T09:15:05.418Z,98310.13
2023-03-12T09:16:10.044Z,98326.49
2023-03-12T09:17:13.084Z,98335.41
2023-03-12T09:18:17.023Z,98342.44
2023-03-12T09:19:20.033Z,98341.77
2023-03-12T09:20:23.171Z,98331.86
2023-03-12T09:21:26.260Z,98348.83
2023-03-12T09:22:29.987Z,98356.72
2023-03-12T09:23:33.419Z,98344.30
2023-03-12T09:24:36.896Z,98349.66
2023-03-12T09:25:39.446Z,98353.17
2023-03-12T09:26:42.667Z,98362.92
2023-03-12T09:27:46.568Z,98364.94
2023-03-12T09:28:50.876Z,98370.30
2023-03-12T09:30:00.479Z,98373.82
2023-03-12T09:31:02.830Z,98373.82
2023-03-12T09:32:07.189Z,98381.88
2023-03-12T09:33:09.883Z,98373.82
2023-03-12T09:34:12.452Z,98385.39
2023-03-12T09:35:15.173Z,98384.56
2023-03-12T09:36:18.655Z,98389.92
2023-03-12T09:37:23.934Z,98403.35
2023-03-12T09:38:26.320Z,98396.99
2023-03-12T09:39:28.957Z,98403.20
2023-03-12T09:40:32.409Z,98392.61
2023-03-12T09:41:38.836Z,98394.15
2023-03-12T09:43:00.783Z,98396.83
2023-03-12T09:44:13.342Z,98404.03
2023-03-12T09:45:24.967Z,98411.25
2023-03-12T09:46:41.691Z,98418.47
2023-03-12T09:47:50.253Z,98441.77
2023-03-12T09:48:53.535Z,98425.81
2023-03-12T09:51:30.755Z,98424.07
2023-03-12T09:52:46.375Z,98432.33
2023-03-12T09:53:52.570Z,98433.35
2023-03-12T09:55:06.123Z,98437.86
2023-03-12T09:56:13.436Z,98429.80
2023-03-12T09:57:19.568Z,98435.33
2023-03-12T09:59:41.546Z,98472.68
2023-03-12T10:00:47.174Z,98458.50
2023-03-12T10:01:58.046Z,98474.61
2023-03-12T10:05:00.106Z,98476.91
2023-03-12T10:06:16.132Z,98479.97
2023-03-12T10:07:22.469Z,98467.39
2023-03-12T10:08:29.634Z,98481.83
2023-03-12T10:09:52.876Z,98498.92
2023-03-12T10:12:29.818Z,98473.83
2023-03-12T10:13:51.190Z,98492.02
2023-03-12T10:15:10.039Z,98478.74
2023-03-12T10:16:37.048Z,98505.73
2023-03-12T10:17:59.835Z,98491.45
2023-03-12T10:19:12.381Z,98500.53
2023-03-12T10:20:54.619Z,98513.08
2023-03-12T10:22:17.701Z,98500.74
2023-03-12T10:23:40.243Z,98508.98
2023-03-12T10:25:00.777Z,98519.00
2023-03-12T10:26:07.741Z,98517.06
2023-03-12T10:27:13.753Z,98533.47
2023-03-12T10:28:24.914Z,98554.92
2023-03-12T10:29:33.514Z,98537.73
2023-03-12T10:30:36.616Z,98529.66
2023-03-12T10:33:00.751Z,98535.95
2023-03-12T10:34:05.784Z,98524.66
2023-03-12T10:35:21.793Z,98511.85
2023-03-12T10:36:37.971Z,98513.95
2023-03-12T10:37:47.152Z,98547.00
2023-03-12T10:38:50.920Z,98528.38
2023-03-12T10:39:56.014Z,98530.75
2023-03-12T10:40:58.666Z,98540.57
2023-03-12T10:42:02.653Z,98533.91
2023-03-12T10:43:06.583Z,98554.22
2023-03-12T10:44:09.398Z,98555.78
2023-03-12T10:45:33.226Z,98538.45
2023-03-12T10:46:42.471Z,98562.37
2023-03-12T10:47:48.350Z,98514.49
2023-03-12T10:48:51.191Z,98515.33
2023-03-12T10:49:54.141Z,98574.44
2023-03-12T10:51:10.400Z,98549.09
2023-03-12T10:53:31.838Z,98575.41
2023-03-12T10:56:10.596Z,98542.84
2023-03-12T10:57:15.506Z,98550.27
2023-03-12T10:58:24.122Z,98554.14
2023-03-12T10:59:32.839Z,98531.23
2023-03-12T11:00:36.241Z,98554.87
2023-03-12T11:01:47.673Z,98535.50
2023-03-12T11:04:20.296Z,98537.53
2023-03-12T11:05:34.338Z,98533.08
2023-03-12T11:06:37.282Z,98538.28
2023-03-12T11:07:40.008Z,98541.42
2023-03-12T11:08:42.807Z,98561.41
2023-03-12T11:09:45.260Z,98529.92
2023-03-12T11:10:48.531Z,98570.98
2023-03-12T11:11:51.244Z,98543.12
2023-03-12T11:13:24.472Z,98536.45
2023-03-12T11:14:28.564Z,98540.83
2023-03-12T11:15:39.949Z,98545.07
2023-03-12T11:16:42.938Z,98550.75
2023-03-12T11:17:46.213Z,98536.83
2023-03-12T11:18:59.301Z,98539.38
2023-03-12T11:20:06.999Z,98545.54
2023-03-12T11:21:13.570Z,98569.19
2023-03-12T11:22:36.530Z,98577.65
2023-03-12T11:23:47.211Z,98551.73
2023-03-12T11:24:57.990Z,98582.02
2023-03-12T11:26:02.541Z,98587.59
2023-03-12T11:27:23.667Z,98577.27
2023-03-12T11:29:48.889Z,98568.93
2023-03-12T11:30:52.165Z,98573.17
2023-03-12T11:33:13.133Z,98571.15
2023-03-12T11:34:25.167Z,98579.84
2023-03-12T11:35:38.222Z,98581.77
2023-03-12T11:36:46.608Z,98583.97
2023-03-12T11:39:38.153Z,98590.14
2023-03-12T11:40:54.183Z,98618.13
2023-03-12T11:42:12.528Z,98611.41
2023-03-12T11:43:41.630Z,98617.16
2023-03-12T11:44:38.545Z,98597.25
2023-03-12T11:46:02.767Z,98591.80
2023-03-12T11:47:23.280Z,98591.02
2023-03-12T11:48:35.562Z,98603.06
2023-03-12T11:51:40.076Z,98667.92
2023-03-12T11:54:17.141Z,98619.91
2023-03-12T11:55:29.265Z,98610.42
2023-03-12T11:56:45.851Z,98609.22
2023-03-12T11:57:53.128Z,98622.44
2023-03-12T11:59:17.325Z,98633.20
2023-03-12T12:00:28.365Z,98618.27
2023-03-12T12:01:35.109Z,98608.48
2023-03-12T12:03:06.573Z,98607.19
2023-03-12T12:04:16.923Z,98600.55
2023-03-12T12:05:39.761Z,98602.97
2023-03-12T12:06:52.064Z,98599.62
2023-03-12T12:08:10.808Z,98605.05
2023-03-12T12:09:23.067Z,98607.08
2023-03-12T12:12:21.420Z,98600.42
2023-03-12T12:15:14.358Z,98601.21
2023-03-12T12:16:45.462Z,98624.42
2023-03-12T12:18:03.924Z,98620.72
2023-03-12T12:19:20.062Z,98620.38
2023-03-12T12:20:33.955Z,98610.47
2023-03-12T12:21:46.384Z,98634.62
2023-03-12T12:23:11.009Z,98627.02
2023-03-12T12:24:22.024Z,98646.20
2023-03-12T12:25:57.895Z,98616.41
2023-03-12T12:27:21.312Z,98618.80
2023-03-12T12:28:27.810Z,98632.88
2023-03-12T12:29:58.894Z,98638.82
2023-03-12T12:31:11.501Z,98633.19
2023-03-12T12:32:18.280Z,98649.56
2023-03-12T12:33:36.609Z,98639.31
2023-03-12T12:34:49.952Z,98645.08
2023-03-12T12:35:52.548Z,98640.88
2023-03-12T12:37:16.831Z,98650.09
2023-03-12T12:40:14.302Z,98648.05
2023-03-12T12:41:26.783Z,98662.84
2023-03-12T12:42:39.605Z,98667.08
2023-03-12T12:43:49.165Z,98666.23
2023-03-12T12:44:53.101Z,98669.61
2023-03-12T12:46:02.724Z,98677.36
2023-03-12T12:47:06.893Z,98670.75
2023-03-12T12:49:47.176Z,98678.13
2023-03-12T12:50:51.022Z,98672.62
2023-03-12T12:53:24.001Z,98702.26
2023-03-12T12:54:30.513Z,98694.34
2023-03-12T12:56:55.157Z,98694.08
2023-03-12T13:00:04.526Z,98700.86
2023-03-12T13:01:11.266Z,98699.14
2023-03-12T13:02:20.324Z,98698.02
2023-03-12T13:03:24.752Z,98698.75
2023-03-12T13:04:35.385Z,98707.19
2023-03-12T13:05:42.043Z,98699.73
2023-03-12T13:07:03.172Z,98700.17
2023-03-12T13:08:07.871Z,98704.38
2023-03-12T13:09:14.743Z,98700.44
2023-03-12T13:10:36.434Z,98693.13
2023-03-12T13:11:40.903Z,98705.41
2023-03-12T13:12:50.131Z,98702.58
2023-03-12T13:14:05.631Z,98693.56
2023-03-12T13:15:31.662Z,98706.82
2023-03-12T13:16:36.509Z,98708.38
2023-03-12T13:19:17.652Z,98699.10
2023-03-12T13:20:25.263Z,98701.89
2023-03-12T13:21:40.971Z,98719.68
2023-03-12T13:22:56.744Z,98713.34
2023-03-12T13:25:47.202Z,98713.77
2023-03-12T13:26:55.873Z,98720.12
2023-03-12T13:28:00.230Z,98708.41
2023-03-12T13:30:37.032Z,98733.23
2023-03-12T13:31:41.959Z,98723.63
2023-03-12T13:32:52.195Z,98725.33
2023-03-12T13:33:59.719Z,98727.87
2023-03-12T13:35:19.386Z,98718.84